• Join FlightAware (Why Join?)
  • Login
  • US Flag 
10:04PM EDT


 

Airport Tracker/Info


-or-


 

Live Flight TrackerFlight Track Log ✈ UAL6129 ✈ 23-Aug-2013 ✈ KORD - KCWA

Flight Track Log - Related Links

Times and Time Zones

All times are in EDT time to prevent confusion due to time zone crossing. See the UAL6129 flight status page for this flight to view local times or setup timezone preferences in your user account.

Time Position Orientation Groundspeed Altitude Reporting Facility
EDT Latitude Longitude Course Direction KTS MPH feet Rate Location/Type
10:56PM 42.0333 -87.9333 346° North 192 221 2,800  Level Chicago TRACON
10:57PM 42.0833 -87.9167 14° North 227 261 4,800 1,320 Climbing Chicago TRACON
10:58PM 42.1444 -87.8831 22° Northeast 263 303 5,500 1,680 Climbing Chicago Center
10:59PM 42.3122 -88.0072 350° North  Level FlightAware Approximate
10:59PM 42.2144 -87.8531 18° North 265 305 8,300  Level Chicago Center
11:00PM 42.3975 -88.0404 340° North  Level FlightAware Approximate
11:00PM 42.3025 -87.8353 North 270 311 11,200  Level Chicago Center
11:01PM 42.4846 -88.0636 352° North  Level FlightAware Approximate
11:02PM 42.5680 -88.1004 346° North  Level FlightAware Approximate
11:02PM 42.3781 -87.8378 359° North 272 313 13,100  Level Chicago Center
11:03PM 42.4586 -87.8403 359° North 285 328 14,900 1,380 Climbing Chicago Center
11:04PM 42.5386 -87.8831 338° Northwest 313 360 16,000 1,020 Climbing Chicago Center
11:05PM 42.6264 -87.9239 341° North 330 380 17,000 840 Climbing Chicago Center
11:06PM 42.7181 -87.9664 341° North 344 396 17,800 480 Climbing Chicago Center
11:07PM 42.8139 -88.0119 341° North 360 414 18,000 60 Climbing Chicago Center
11:08PM 42.9183 -88.0603 341° North 390 449 18,000  Level Chicago Center
11:09PM 43.0233 -88.1111 341° North 400 460 18,000  Level Chicago Center
11:10PM 43.1303 -88.1617 341° North 404 465 18,000  Level Chicago Center
11:11PM 43.2367 -88.2119 341° North 404 465 18,000  Level Chicago Center
11:12PM 43.3586 -88.2706 341° North 400 460 18,000  Level Chicago Center
11:13PM 43.4622 -88.3203 341° North 400 460 18,000  Level Chicago Center
11:14PM 43.5647 -88.3697 341° North 398 458 18,000  Level Chicago Center
11:15PM 43.6681 -88.4203 341° North 398 458 18,000 -180 Level Chicago Center
11:16PM 43.7642 -88.4856 334° Northwest 390 449 17,700 -720 Descending Chicago Center
11:17PM 43.8456 -88.5764 321° Northwest 378 435 16,600 -1,080 Descending Chicago Center
11:18PM 43.9250 -88.6697 320° Northwest 374 430 15,600 -1,020 Descending Chicago Center
11:19PM 44.0069 -88.7633 321° Northwest 380 437 14,600 -1,200 Descending Chicago Center
11:20PM 44.1019 -88.8606 324° Northwest 358 412 13,300 -1,260 Descending Chicago Center
11:21PM 44.1756 -88.9300 326° Northwest 323 372 12,100 -1,440 Descending Chicago Center
11:22PM 44.2408 -88.9919 326° Northwest 297 342 10,400 -1,920 Descending Chicago Center
11:23PM 44.3039 -89.0500 327° Northwest 277 319 8,300 -1,680 Descending Chicago Center
11:24PM 44.3733 -89.1167 326° Northwest 276 318 6,900 -1,200 Descending Minneapolis Center
11:25PM 44.4275 -89.1678 326° Northwest 249 287 5,900 -1,020 Descending Minneapolis Center
11:26PM 44.4883 -89.2253 326° Northwest 253 291 4,900 -1,080 Descending Minneapolis Center
11:27PM 44.5528 -89.2872 326° Northwest 269 310 3,800 -960 Descending Minneapolis Center
11:28PM 44.6117 -89.3436 326° Northwest 267 307 3,000 -420 Descending Minneapolis Center
11:29PM 44.6756 -89.4042 326° Northwest 266 306 3,000  Level Minneapolis Center
11:30PM 44.7347 -89.4597 326° Northwest 235 270 3,000  Level Minneapolis Center
11:31PM 44.7778 -89.5022 325° Northwest 201 231 3,000 -120 Level Minneapolis Center
11:32PM 44.8000 -89.5464 305° West 136 157 2,800 -540 Descending Minneapolis Center
11:33PM 44.7928 -89.6003 259° West 133 153 2,000 -720 Descending Minneapolis Center
11:34PM 44.7836 -89.6514 256° West 135 155 1,400 -600 Descending Minneapolis Center